createdAt,value
2022-09-17T00:00:46.268Z,0.00
2022-09-17T00:01:46.282Z,0.00
2022-09-17T00:02:46.275Z,0.00
2022-09-17T00:03:46.197Z,0.00
2022-09-17T00:04:46.179Z,0.00
2022-09-17T00:05:46.210Z,0.00
2022-09-17T00:06:46.171Z,0.00
2022-09-17T00:07:46.136Z,0.00
2022-09-17T00:08:46.122Z,0.00
2022-09-17T00:09:46.093Z,0.00
2022-09-17T00:10:46.164Z,0.00
2022-09-17T00:11:46.063Z,0.00
2022-09-17T00:12:46.068Z,0.00
2022-09-17T00:13:46.035Z,0.00
2022-09-17T00:14:46.018Z,0.00
2022-09-17T00:15:46.045Z,0.00
2022-09-17T00:16:45.997Z,0.00
2022-09-17T00:17:45.966Z,0.00
2022-09-17T00:18:45.955Z,0.00
2022-09-17T00:19:45.934Z,0.00
2022-09-17T00:20:45.923Z,0.00
2022-09-17T00:21:45.923Z,0.00
2022-09-17T00:22:45.887Z,0.00
2022-09-17T00:23:45.952Z,0.00
2022-09-17T00:24:45.857Z,0.00
2022-09-17T00:25:45.844Z,0.00
2022-09-17T00:26:45.907Z,0.00
2022-09-17T00:27:46.001Z,0.00
2022-09-17T00:28:45.794Z,0.00
2022-09-17T00:29:45.774Z,0.00
2022-09-17T00:30:45.767Z,0.00
2022-09-17T00:31:45.767Z,0.00
2022-09-17T00:32:45.728Z,0.00
2022-09-17T00:33:45.712Z,0.00
2022-09-17T00:34:45.698Z,0.00
2022-09-17T00:35:45.703Z,0.00
2022-09-17T00:36:45.665Z,0.00
2022-09-17T00:37:45.650Z,0.00
2022-09-17T00:38:45.663Z,0.00
2022-09-17T00:39:45.663Z,0.00
2022-09-17T00:40:45.600Z,0.00
2022-09-17T00:41:45.587Z,0.00
2022-09-17T00:42:45.650Z,0.00
2022-09-17T00:43:45.550Z,0.00
2022-09-17T00:44:45.567Z,0.00
2022-09-17T00:45:45.520Z,0.00
2022-09-17T00:46:45.572Z,0.00
2022-09-17T00:47:45.581Z,0.00
2022-09-17T00:48:45.499Z,0.00
2022-09-17T00:49:45.453Z,0.00
2022-09-17T00:50:45.440Z,0.00
2022-09-17T00:51:45.443Z,0.00
2022-09-17T00:52:45.407Z,0.00
2022-09-17T00:53:45.425Z,0.00
2022-09-17T00:54:45.376Z,0.00
2022-09-17T00:55:45.367Z,0.00
2022-09-17T00:56:45.382Z,0.00
2022-09-17T00:57:45.324Z,0.00
2022-09-17T00:58:45.426Z,0.00
2022-09-17T00:59:45.297Z,0.00
2022-09-17T01:00:45.321Z,0.00
2022-09-17T01:01:45.273Z,0.00
2022-09-17T01:02:45.251Z,0.00
2022-09-17T01:03:45.229Z,0.00
2022-09-17T01:04:45.381Z,0.00
2022-09-17T01:05:45.195Z,0.00
2022-09-17T01:06:45.225Z,0.00
2022-09-17T01:07:45.163Z,0.00
2022-09-17T01:08:45.199Z,0.00
2022-09-17T01:09:45.135Z,0.00
2022-09-17T01:10:45.143Z,0.00
2022-09-17T01:11:45.142Z,0.00
2022-09-17T01:12:45.097Z,0.00
2022-09-17T01:13:45.072Z,0.00
2022-09-17T01:14:45.130Z,0.00
2022-09-17T01:15:45.067Z,0.00
2022-09-17T01:16:45.032Z,0.00
2022-09-17T01:17:45.028Z,0.00
2022-09-17T01:18:45.037Z,0.00
2022-09-17T01:19:44.969Z,0.00
2022-09-17T01:20:44.962Z,0.00
2022-09-17T01:21:44.975Z,0.00
2022-09-17T01:22:44.926Z,0.00
2022-09-17T01:23:44.926Z,0.00
2022-09-17T01:24:44.904Z,0.00
2022-09-17T01:25:44.874Z,0.00
2022-09-17T01:26:44.878Z,0.00
2022-09-17T01:27:45.922Z,0.00
2022-09-17T01:28:44.831Z,0.00
2022-09-17T01:29:44.817Z,0.00
2022-09-17T01:30:44.876Z,0.00
2022-09-17T01:31:44.857Z,0.00
2022-09-17T01:32:44.765Z,0.00
2022-09-17T01:33:44.774Z,0.00
2022-09-17T01:34:45.455Z,0.00
2022-09-17T01:35:44.712Z,0.00
2022-09-17T01:36:44.771Z,0.00
2022-09-17T01:37:44.679Z,0.00
2022-09-17T01:38:44.720Z,0.00
2022-09-17T01:39:44.648Z,0.00
2022-09-17T01:40:44.636Z,0.00
2022-09-17T01:41:44.628Z,0.00
2022-09-17T01:42:44.611Z,0.00
2022-09-17T01:43:44.601Z,0.00
2022-09-17T01:44:44.599Z,0.00
2022-09-17T01:45:44.555Z,0.00
2022-09-17T01:46:44.684Z,0.00
2022-09-17T01:47:44.523Z,0.00
2022-09-17T01:48:44.511Z,0.00
2022-09-17T01:49:44.485Z,0.00
2022-09-17T01:50:44.499Z,0.00
2022-09-17T01:51:44.491Z,0.00
2022-09-17T01:52:44.440Z,0.00
2022-09-17T01:53:44.425Z,0.00
2022-09-17T01:54:44.410Z,0.00
2022-09-17T01:55:44.394Z,0.00
2022-09-17T01:56:44.394Z,0.00
2022-09-17T01:57:44.378Z,0.00
2022-09-17T01:58:44.349Z,0.00
2022-09-17T01:59:44.328Z,0.00
2022-09-17T02:00:44.367Z,0.00
2022-09-17T02:01:44.316Z,0.00
2022-09-17T02:02:44.357Z,0.00
2022-09-17T02:03:44.266Z,0.00
2022-09-17T02:04:44.249Z,0.00
2022-09-17T02:05:44.260Z,0.00
2022-09-17T02:06:44.225Z,0.00
2022-09-17T02:07:44.200Z,0.00
2022-09-17T02:08:44.198Z,0.00
2022-09-17T02:09:44.167Z,0.00
2022-09-17T02:10:44.153Z,0.00
2022-09-17T02:11:44.137Z,0.00
2022-09-17T02:12:44.120Z,0.00
2022-09-17T02:13:44.141Z,0.00
2022-09-17T02:14:44.088Z,0.00
2022-09-17T02:15:44.156Z,0.00
2022-09-17T02:16:44.074Z,0.00
2022-09-17T02:17:44.041Z,0.00
2022-09-17T02:18:44.103Z,0.00
2022-09-17T02:19:44.008Z,0.00
2022-09-17T02:20:43.990Z,0.00
2022-09-17T02:21:44.012Z,0.00
2022-09-17T02:22:43.956Z,0.00
2022-09-17T02:23:43.948Z,0.00
2022-09-17T02:24:43.929Z,0.00
2022-09-17T02:25:43.919Z,0.00
2022-09-17T02:26:43.910Z,0.00
2022-09-17T02:27:43.881Z,0.00
2022-09-17T02:28:43.916Z,0.00
2022-09-17T02:29:43.868Z,0.00
2022-09-17T02:30:43.829Z,0.00
2022-09-17T02:31:43.833Z,0.00
2022-09-17T02:32:43.819Z,0.00
2022-09-17T02:33:43.783Z,0.00
2022-09-17T02:34:43.849Z,0.00
2022-09-17T02:35:43.748Z,0.00
2022-09-17T02:36:43.732Z,0.00
2022-09-17T02:37:43.720Z,0.00
2022-09-17T02:38:43.707Z,0.00
2022-09-17T02:39:43.689Z,0.00
2022-09-17T02:40:43.675Z,0.00
2022-09-17T02:41:43.655Z,0.00
2022-09-17T02:42:43.637Z,0.00
2022-09-17T02:43:43.621Z,0.00
2022-09-17T02:44:43.610Z,0.00
2022-09-17T02:45:43.622Z,0.00
2022-09-17T02:46:43.624Z,0.00
2022-09-17T02:47:43.587Z,0.00
2022-09-17T02:48:43.710Z,0.00
2022-09-17T02:49:43.603Z,0.00
2022-09-17T02:50:43.586Z,0.00
2022-09-17T02:51:43.493Z,0.00
2022-09-17T02:52:43.486Z,0.00
2022-09-17T02:53:43.463Z,0.00
2022-09-17T02:54:43.515Z,0.00
2022-09-17T02:55:43.433Z,0.00
2022-09-17T02:56:43.431Z,0.00
2022-09-17T02:57:43.420Z,0.00
2022-09-17T02:58:43.379Z,0.00
2022-09-17T02:59:43.361Z,0.00
2022-09-17T03:00:43.549Z,0.00
2022-09-17T03:01:43.378Z,0.00
2022-09-17T03:02:43.316Z,0.00
2022-09-17T03:03:43.308Z,0.00
2022-09-17T03:04:43.278Z,0.00
2022-09-17T03:05:43.274Z,0.00
2022-09-17T03:06:43.359Z,0.00
2022-09-17T03:07:43.231Z,0.00
2022-09-17T03:08:43.224Z,0.00
2022-09-17T03:09:43.200Z,0.00
2022-09-17T03:10:43.183Z,0.00
2022-09-17T03:11:43.326Z,0.00
2022-09-17T03:12:43.159Z,0.00
2022-09-17T03:13:43.157Z,0.00
2022-09-17T03:14:43.119Z,0.00
2022-09-17T03:15:43.218Z,0.00
2022-09-17T03:16:43.104Z,0.00
2022-09-17T03:17:43.075Z,0.00
2022-09-17T03:18:43.053Z,0.00
2022-09-17T03:19:43.062Z,0.00
2022-09-17T03:20:43.037Z,0.00
2022-09-17T03:21:43.008Z,0.00
2022-09-17T03:22:43.067Z,0.00
2022-09-17T03:23:42.977Z,0.00
2022-09-17T03:24:42.988Z,0.00
2022-09-17T03:25:42.942Z,0.00
2022-09-17T03:26:42.922Z,0.00
2022-09-17T03:27:42.908Z,0.00
2022-09-17T03:28:42.949Z,0.00
2022-09-17T03:29:42.898Z,0.00
2022-09-17T03:30:42.870Z,0.00
2022-09-17T03:31:42.939Z,0.00
2022-09-17T03:32:42.846Z,0.00
2022-09-17T03:33:42.808Z,0.00
2022-09-17T03:34:42.805Z,0.00
2022-09-17T03:35:42.777Z,0.00
2022-09-17T03:36:42.760Z,0.00
2022-09-17T03:37:42.746Z,0.00
2022-09-17T03:38:42.998Z,0.00
2022-09-17T03:39:42.715Z,0.00
2022-09-17T03:40:42.694Z,0.00
2022-09-17T03:41:42.681Z,0.00
2022-09-17T03:42:42.663Z,0.00
2022-09-17T03:43:42.649Z,0.00
2022-09-17T03:44:45.397Z,0.00
2022-09-17T03:45:42.633Z,0.00
2022-09-17T03:46:42.641Z,0.00
2022-09-17T03:47:42.584Z,0.00
2022-09-17T03:48:42.594Z,0.00
2022-09-17T03:49:42.576Z,0.00
2022-09-17T03:50:42.557Z,0.00
2022-09-17T03:51:42.520Z,0.00
2022-09-17T03:52:42.541Z,0.00
2022-09-17T03:53:42.485Z,0.00
2022-09-17T03:54:42.569Z,0.00
2022-09-17T03:55:42.479Z,0.00
2022-09-17T03:56:42.434Z,0.00
2022-09-17T03:57:42.427Z,0.00
2022-09-17T03:58:42.402Z,0.00
2022-09-17T03:59:42.418Z,0.00
2022-09-17T04:00:42.373Z,0.00
2022-09-17T04:01:42.467Z,0.00
2022-09-17T04:02:42.401Z,0.00
2022-09-17T04:03:42.319Z,0.00
2022-09-17T04:04:42.322Z,0.00
2022-09-17T04:05:42.405Z,0.00
2022-09-17T04:06:42.273Z,0.00
2022-09-17T04:07:42.251Z,0.00
2022-09-17T04:08:42.242Z,0.00
2022-09-17T04:09:42.246Z,0.00
2022-09-17T04:10:42.285Z,0.00
2022-09-17T04:11:42.218Z,0.00
2022-09-17T04:12:42.205Z,0.00
2022-09-17T04:13:42.188Z,0.00
2022-09-17T04:14:42.168Z,0.00
2022-09-17T04:15:42.570Z,0.00
2022-09-17T04:16:42.110Z,0.00
2022-09-17T04:17:42.118Z,0.00
2022-09-17T04:18:42.087Z,0.00
2022-09-17T04:19:42.059Z,0.00
2022-09-17T04:20:42.064Z,0.00
2022-09-17T04:21:42.024Z,0.00
2022-09-17T04:22:42.035Z,0.00
2022-09-17T04:23:41.989Z,0.00
2022-09-17T04:24:41.977Z,0.00
2022-09-17T04:25:41.961Z,0.00
2022-09-17T04:26:42.020Z,0.00
2022-09-17T04:27:41.954Z,0.00
2022-09-17T04:28:41.909Z,0.00
2022-09-17T04:29:41.945Z,0.00
2022-09-17T04:30:41.877Z,0.00
2022-09-17T04:31:41.906Z,0.00
2022-09-17T04:32:41.843Z,0.00
2022-09-17T04:33:41.824Z,0.00
2022-09-17T04:34:41.813Z,0.00
2022-09-17T04:35:41.793Z,0.00
2022-09-17T04:36:41.892Z,0.00
2022-09-17T04:37:41.760Z,0.00
2022-09-17T04:38:41.745Z,0.00
2022-09-17T04:39:41.759Z,0.00
2022-09-17T04:40:41.801Z,0.00
2022-09-17T04:41:41.714Z,0.00
2022-09-17T04:42:41.753Z,0.00
2022-09-17T04:43:41.657Z,0.00
2022-09-17T04:44:41.680Z,0.00
2022-09-17T04:45:41.625Z,0.00
2022-09-17T04:46:41.655Z,0.00
2022-09-17T04:47:41.595Z,0.00
2022-09-17T04:48:41.578Z,0.00
2022-09-17T04:49:41.565Z,0.00
2022-09-17T04:50:41.548Z,0.00
2022-09-17T04:51:41.530Z,0.00
2022-09-17T04:52:41.529Z,0.00
2022-09-17T04:53:41.495Z,0.00
2022-09-17T04:54:41.497Z,0.00
2022-09-17T04:55:41.462Z,0.00
2022-09-17T04:56:41.443Z,0.00
2022-09-17T04:57:41.430Z,0.00
2022-09-17T04:58:41.498Z,0.00
2022-09-17T04:59:41.392Z,0.00
2022-09-17T05:00:41.466Z,0.00
2022-09-17T05:01:41.393Z,0.00
2022-09-17T05:02:41.361Z,0.00
2022-09-17T05:03:41.325Z,0.00
2022-09-17T05:04:41.317Z,0.00
2022-09-17T05:05:41.343Z,0.00
2022-09-17T05:06:41.329Z,0.00
2022-09-17T05:07:41.262Z,0.00
2022-09-17T05:08:41.255Z,0.00
2022-09-17T05:09:41.226Z,0.00
2022-09-17T05:10:42.287Z,0.00
2022-09-17T05:11:41.202Z,0.00
2022-09-17T05:12:41.178Z,0.00
2022-09-17T05:13:41.162Z,0.00
2022-09-17T05:14:41.236Z,0.00
2022-09-17T05:15:41.167Z,0.00
2022-09-17T05:16:41.135Z,0.00
2022-09-17T05:17:41.094Z,0.00
2022-09-17T05:18:41.078Z,0.00
2022-09-17T05:19:41.061Z,0.00
2022-09-17T05:20:41.106Z,0.00
2022-09-17T05:21:41.024Z,0.00
2022-09-17T05:22:41.034Z,0.00
2022-09-17T05:23:41.061Z,0.00
2022-09-17T05:24:40.989Z,0.00
2022-09-17T05:25:40.957Z,0.00
2022-09-17T05:26:40.943Z,0.00
2022-09-17T05:27:40.968Z,0.00
2022-09-17T05:28:40.908Z,0.00
2022-09-17T05:29:40.893Z,0.00
2022-09-17T05:30:40.955Z,0.00
2022-09-17T05:31:40.922Z,0.00
2022-09-17T05:32:40.896Z,0.00
2022-09-17T05:33:40.824Z,0.00
2022-09-17T05:34:40.812Z,0.00
2022-09-17T05:35:40.801Z,0.00
2022-09-17T05:36:40.777Z,0.00
2022-09-17T05:37:40.756Z,0.00
2022-09-17T05:38:40.741Z,0.00
2022-09-17T05:39:40.730Z,0.00
2022-09-17T05:40:40.760Z,0.00
2022-09-17T05:41:40.689Z,0.00
2022-09-17T05:42:40.677Z,0.00
2022-09-17T05:43:40.663Z,5.63
2022-09-17T05:44:40.670Z,5.63
2022-09-17T05:45:40.650Z,5.63
2022-09-17T05:46:40.737Z,5.63
2022-09-17T05:47:40.594Z,5.63
2022-09-17T05:48:40.574Z,5.63
2022-09-17T05:49:40.560Z,5.63
2022-09-17T05:50:40.712Z,5.63
2022-09-17T05:51:40.527Z,5.63
2022-09-17T05:52:40.506Z,5.63
2022-09-17T05:53:40.503Z,5.63
2022-09-17T05:54:40.486Z,5.63
2022-09-17T05:55:40.460Z,5.63
2022-09-17T05:56:40.444Z,5.63
2022-09-17T05:57:40.425Z,5.63
2022-09-17T05:58:40.407Z,5.63
2022-09-17T05:59:40.405Z,5.63
2022-09-17T06:00:40.404Z,5.63
2022-09-17T06:01:40.393Z,11.25
2022-09-17T06:02:40.475Z,11.25
2022-09-17T06:03:40.321Z,11.25
2022-09-17T06:04:40.309Z,16.88
2022-09-17T06:05:40.290Z,11.25
2022-09-17T06:06:40.300Z,11.25
2022-09-17T06:07:40.270Z,11.25
2022-09-17T06:08:40.243Z,11.25
2022-09-17T06:09:40.228Z,5.63
2022-09-17T06:10:40.231Z,5.63
2022-09-17T06:11:40.200Z,5.63
2022-09-17T06:12:40.177Z,5.63
2022-09-17T06:13:40.162Z,5.63
2022-09-17T06:14:40.142Z,5.63
2022-09-17T06:15:40.122Z,5.63
2022-09-17T06:16:40.246Z,5.63
2022-09-17T06:17:40.092Z,5.63
2022-09-17T06:18:40.157Z,5.63
2022-09-17T06:19:40.060Z,11.25
2022-09-17T06:20:40.056Z,11.25
2022-09-17T06:21:40.036Z,11.25
2022-09-17T06:22:40.035Z,5.63
2022-09-17T06:23:39.990Z,5.63
2022-09-17T06:24:39.976Z,5.63
2022-09-17T06:25:39.956Z,5.63
2022-09-17T06:26:39.972Z,5.63
2022-09-17T06:27:39.951Z,5.63
2022-09-17T06:28:41.859Z,5.63
2022-09-17T06:29:39.900Z,5.63
2022-09-17T06:30:39.881Z,5.63
2022-09-17T06:31:39.966Z,5.63
2022-09-17T06:32:39.892Z,5.63
2022-09-17T06:33:39.824Z,5.63
2022-09-17T06:34:39.918Z,5.63
2022-09-17T06:35:39.793Z,5.63
2022-09-17T06:36:39.781Z,5.63
2022-09-17T06:37:39.757Z,5.63
2022-09-17T06:38:39.758Z,5.63
2022-09-17T06:39:39.728Z,5.63
2022-09-17T06:40:39.793Z,5.63
2022-09-17T06:41:39.689Z,5.63
2022-09-17T06:42:39.678Z,5.63
2022-09-17T06:43:39.686Z,5.63
2022-09-17T06:44:39.644Z,5.63
2022-09-17T06:45:39.622Z,5.63
2022-09-17T06:46:39.642Z,5.63
2022-09-17T06:47:39.620Z,5.63
2022-09-17T06:48:39.575Z,5.63
2022-09-17T06:49:39.569Z,5.63
2022-09-17T06:50:42.766Z,5.63
2022-09-17T06:51:39.580Z,5.63
2022-09-17T06:52:39.519Z,5.63
2022-09-17T06:53:39.497Z,11.25
2022-09-17T06:54:39.477Z,11.25
2022-09-17T06:55:39.457Z,11.25
2022-09-17T06:56:39.443Z,11.25
2022-09-17T06:57:39.460Z,11.25
2022-09-17T06:58:39.411Z,11.25
2022-09-17T06:59:39.393Z,11.25
2022-09-17T07:00:39.460Z,11.25
2022-09-17T07:01:39.406Z,11.25
2022-09-17T07:02:39.412Z,11.25
2022-09-17T07:03:39.350Z,11.25
2022-09-17T07:04:39.312Z,11.25
2022-09-17T07:05:39.291Z,11.25
2022-09-17T07:06:39.369Z,11.25
2022-09-17T07:07:39.262Z,11.25
2022-09-17T07:08:39.257Z,11.25
2022-09-17T07:09:39.225Z,16.88
2022-09-17T07:10:39.210Z,16.88
2022-09-17T07:11:39.213Z,16.88
2022-09-17T07:12:39.186Z,16.88
2022-09-17T07:13:39.192Z,16.88
2022-09-17T07:14:39.149Z,16.88
2022-09-17T07:15:39.144Z,16.88
2022-09-17T07:16:39.110Z,16.88
2022-09-17T07:17:39.093Z,16.88
2022-09-17T07:18:39.147Z,16.88
2022-09-17T07:19:39.062Z,16.88
2022-09-17T07:20:39.060Z,16.88
2022-09-17T07:21:39.026Z,16.88
2022-09-17T07:22:39.092Z,33.75
2022-09-17T07:23:38.999Z,39.38
2022-09-17T07:24:39.062Z,33.75
2022-09-17T07:25:38.970Z,16.88
2022-09-17T07:26:38.961Z,22.50
2022-09-17T07:27:38.928Z,22.50
2022-09-17T07:28:38.917Z,28.13
2022-09-17T07:29:38.896Z,33.75
2022-09-17T07:30:38.904Z,33.75
2022-09-17T07:31:38.898Z,56.25
2022-09-17T07:32:38.864Z,45.00
2022-09-17T07:33:38.834Z,28.13
2022-09-17T07:34:38.817Z,22.50
2022-09-17T07:35:38.830Z,16.88
2022-09-17T07:36:38.822Z,16.88
2022-09-17T07:37:38.767Z,16.88
2022-09-17T07:38:38.837Z,16.88
2022-09-17T07:39:38.734Z,16.88
2022-09-17T07:40:38.824Z,16.88
2022-09-17T07:41:38.731Z,16.88
2022-09-17T07:42:38.691Z,16.88
2022-09-17T07:43:38.672Z,16.88
2022-09-17T07:44:38.653Z,16.88
2022-09-17T07:45:38.637Z,16.88
2022-09-17T07:46:38.689Z,16.88
2022-09-17T07:47:38.610Z,16.88
2022-09-17T07:48:38.599Z,16.88
2022-09-17T07:49:38.600Z,16.88
2022-09-17T07:50:38.556Z,16.88
2022-09-17T07:51:40.428Z,16.88
2022-09-17T07:52:38.528Z,16.88
2022-09-17T07:53:38.547Z,22.50
2022-09-17T07:54:38.569Z,22.50
2022-09-17T07:55:38.506Z,28.13
2022-09-17T07:56:38.463Z,22.50
2022-09-17T07:57:38.442Z,16.88
2022-09-17T07:58:38.435Z,16.88
2022-09-17T07:59:38.638Z,16.88
2022-09-17T08:00:38.428Z,22.50
2022-09-17T08:01:38.510Z,16.88
2022-09-17T08:02:38.464Z,16.88
2022-09-17T08:03:38.416Z,16.88
2022-09-17T08:04:38.335Z,16.88
2022-09-17T08:05:38.315Z,16.88
2022-09-17T08:06:38.296Z,16.88
2022-09-17T08:07:38.282Z,16.88
2022-09-17T08:08:38.270Z,16.88
2022-09-17T08:09:38.254Z,16.88
2022-09-17T08:10:38.313Z,16.88
2022-09-17T08:11:55.137Z,16.88
2022-09-17T08:12:38.214Z,16.88
2022-09-17T08:13:38.224Z,22.50
2022-09-17T08:14:38.172Z,22.50
2022-09-17T08:15:38.155Z,16.88
2022-09-17T08:16:38.171Z,16.88
2022-09-17T08:17:38.129Z,16.88
2022-09-17T08:18:38.129Z,16.88
2022-09-17T08:19:38.091Z,22.50
2022-09-17T08:20:38.074Z,22.50
2022-09-17T08:21:38.059Z,22.50
2022-09-17T08:22:38.044Z,22.50
2022-09-17T08:23:38.056Z,22.50
2022-09-17T08:24:38.011Z,22.50
2022-09-17T08:25:38.041Z,16.88
2022-09-17T08:26:38.057Z,22.50
2022-09-17T08:27:37.992Z,22.50
2022-09-17T08:28:37.967Z,22.50
2022-09-17T08:29:37.932Z,22.50
2022-09-17T08:30:37.942Z,22.50
2022-09-17T08:31:37.973Z,22.50
2022-09-17T08:32:37.879Z,22.50
2022-09-17T08:33:37.865Z,22.50
2022-09-17T08:34:37.852Z,28.13
2022-09-17T08:35:37.858Z,28.13
2022-09-17T08:36:37.821Z,28.13
2022-09-17T08:37:37.802Z,22.50
2022-09-17T08:38:38.367Z,28.13
2022-09-17T08:39:37.768Z,22.50
2022-09-17T08:40:37.971Z,22.50
2022-09-17T08:41:37.739Z,16.88
2022-09-17T08:42:38.682Z,22.50
2022-09-17T08:43:37.709Z,22.50
2022-09-17T08:44:37.688Z,22.50
2022-09-17T08:45:37.696Z,22.50
2022-09-17T08:46:37.838Z,22.50
2022-09-17T08:47:37.648Z,22.50
2022-09-17T08:48:37.627Z,22.50
2022-09-17T08:49:37.640Z,28.13
2022-09-17T08:50:37.593Z,33.75
2022-09-17T08:51:37.863Z,28.13
2022-09-17T08:52:37.728Z,28.13
2022-09-17T08:53:37.550Z,22.50
2022-09-17T08:54:37.531Z,22.50
2022-09-17T08:55:37.546Z,28.13
2022-09-17T08:56:37.515Z,28.13
2022-09-17T08:57:37.483Z,22.50
2022-09-17T08:58:37.581Z,22.50
2022-09-17T08:59:37.454Z,22.50
2022-09-17T09:00:37.447Z,22.50
2022-09-17T09:01:37.468Z,28.13
2022-09-17T09:02:37.476Z,28.13
2022-09-17T09:03:37.453Z,28.13
2022-09-17T09:04:37.379Z,28.13
2022-09-17T09:05:37.358Z,28.13
2022-09-17T09:06:37.342Z,28.13
2022-09-17T09:07:37.329Z,28.13
2022-09-17T09:08:37.321Z,28.13
2022-09-17T09:09:37.300Z,28.13
2022-09-17T09:10:38.094Z,28.13
2022-09-17T09:11:37.289Z,28.13
2022-09-17T09:12:37.248Z,28.13
2022-09-17T09:13:37.233Z,28.13
2022-09-17T09:14:37.310Z,28.13
2022-09-17T09:15:37.202Z,28.13
2022-09-17T09:16:37.279Z,28.13
2022-09-17T12:32:24.187Z,0.00
2022-09-17T12:40:25.298Z,28.13
2022-09-17T12:41:25.118Z,28.13
2022-09-17T12:51:51.669Z,5.63
2022-09-17T12:52:51.557Z,5.63
2022-09-17T12:53:51.547Z,5.63
2022-09-17T12:54:51.535Z,5.63
2022-09-17T12:55:51.521Z,5.63
2022-09-17T12:56:51.503Z,5.63
2022-09-17T12:57:51.488Z,0.00
2022-09-17T12:59:35.594Z,39.38
2022-09-17T13:00:35.627Z,45.00
2022-09-17T13:01:35.591Z,50.63
2022-09-17T13:02:35.540Z,50.63
2022-09-17T13:03:35.523Z,39.38
2022-09-17T13:04:59.586Z,39.38
2022-09-17T13:05:36.165Z,56.25
2022-09-17T13:06:35.484Z,61.88
2022-09-17T13:07:35.552Z,61.88
2022-09-17T13:08:35.456Z,56.25
2022-09-17T13:09:35.438Z,39.38
2022-09-17T13:10:35.437Z,45.00
2022-09-17T13:11:35.927Z,45.00
2022-09-17T13:12:35.400Z,39.38
2022-09-17T13:13:35.420Z,45.00
2022-09-17T13:14:35.383Z,39.38
2022-09-17T13:15:35.381Z,39.38
2022-09-17T13:16:35.381Z,39.38
2022-09-17T13:17:35.425Z,39.38
2022-09-17T13:18:35.332Z,39.38
2022-09-17T13:19:35.300Z,39.38
2022-09-17T13:20:35.324Z,39.38
2022-09-17T13:21:35.278Z,39.38
2022-09-17T13:22:35.262Z,39.38
2022-09-17T13:23:35.324Z,39.38
2022-09-17T13:24:35.231Z,45.00
2022-09-17T13:25:35.243Z,50.63
2022-09-17T13:26:35.202Z,39.38
2022-09-17T13:27:35.195Z,45.00
2022-09-17T13:28:35.175Z,39.38
2022-09-17T13:29:35.168Z,39.38
2022-09-17T13:30:35.209Z,39.38
2022-09-17T13:31:35.195Z,39.38
2022-09-17T13:32:35.134Z,39.38
2022-09-17T13:33:35.103Z,45.00
2022-09-17T13:34:35.093Z,78.75
2022-09-17T13:35:35.078Z,180.00
2022-09-17T13:36:35.098Z,45.00
2022-09-17T13:37:35.045Z,67.50
2022-09-17T13:38:35.033Z,45.00
2022-09-17T13:39:35.104Z,56.25
2022-09-17T13:40:35.141Z,67.50
2022-09-17T13:41:35.732Z,118.13
2022-09-17T13:42:35.008Z,50.63
2022-09-17T13:43:34.976Z,50.63
2022-09-17T13:44:34.950Z,78.75
2022-09-17T13:45:34.933Z,50.63
2022-09-17T13:46:34.976Z,129.38
2022-09-17T13:47:35.004Z,56.25
2022-09-17T13:48:34.946Z,286.88
2022-09-17T13:49:34.877Z,78.75
2022-09-17T13:50:34.877Z,202.50
2022-09-17T13:51:34.851Z,180.00
2022-09-17T13:52:34.841Z,106.88
2022-09-17T13:53:34.895Z,106.88
2022-09-17T13:54:34.813Z,101.25
2022-09-17T13:55:34.881Z,90.00
2022-09-17T13:56:34.812Z,151.88
2022-09-17T13:57:34.768Z,202.50
2022-09-17T13:58:34.819Z,230.63
2022-09-17T13:59:34.780Z,185.63
2022-09-17T14:00:34.780Z,123.75
2022-09-17T14:01:34.718Z,151.88
2022-09-17T14:02:34.810Z,196.88
2022-09-17T14:03:34.696Z,219.38
2022-09-17T14:04:34.681Z,292.50
2022-09-17T14:05:34.689Z,270.00
2022-09-17T14:06:34.785Z,168.75
2022-09-17T14:07:34.642Z,118.13
2022-09-17T14:08:34.626Z,174.38
2022-09-17T14:09:38.611Z,106.88
2022-09-17T14:10:34.665Z,45.00
2022-09-17T14:11:34.669Z,39.38
2022-09-17T14:12:34.595Z,146.25
2022-09-17T14:13:34.566Z,84.38
2022-09-17T14:14:34.557Z,45.00
2022-09-17T14:15:34.545Z,45.00
2022-09-17T14:16:34.608Z,39.38
2022-09-17T14:17:34.547Z,45.00
2022-09-17T14:18:34.503Z,39.38
2022-09-17T14:19:34.501Z,33.75
2022-09-17T14:20:34.477Z,33.75
2022-09-17T14:21:34.498Z,33.75
2022-09-17T14:22:34.474Z,61.88
2022-09-17T14:23:34.443Z,236.25
2022-09-17T14:24:34.423Z,196.88
2022-09-17T14:25:34.427Z,185.63
2022-09-17T14:26:34.438Z,174.38
2022-09-17T14:27:37.615Z,140.63
2022-09-17T14:28:34.370Z,118.13
2022-09-17T14:29:34.363Z,106.88
2022-09-17T14:30:34.347Z,95.63
2022-09-17T14:31:34.460Z,95.63
2022-09-17T14:32:34.350Z,163.13
2022-09-17T14:33:34.298Z,45.00
2022-09-17T14:34:34.298Z,129.38
2022-09-17T14:35:34.271Z,140.63
2022-09-17T14:36:34.258Z,73.13
2022-09-17T14:37:34.274Z,151.88
2022-09-17T14:38:34.235Z,180.00
2022-09-17T14:39:34.219Z,163.13
2022-09-17T14:40:34.325Z,202.50
2022-09-17T14:41:34.198Z,320.63
2022-09-17T14:42:34.221Z,219.38
2022-09-17T14:43:34.246Z,196.88
2022-09-17T14:44:34.159Z,343.13
2022-09-17T14:45:34.177Z,298.13
2022-09-17T14:46:34.169Z,225.00
2022-09-17T14:47:34.138Z,241.88
2022-09-17T14:48:34.140Z,140.63
2022-09-17T14:49:34.088Z,163.13
2022-09-17T14:50:34.074Z,298.13
2022-09-17T14:51:34.761Z,298.13
2022-09-17T14:52:34.063Z,298.13
2022-09-17T14:53:34.061Z,320.63
2022-09-17T14:54:36.583Z,343.13
2022-09-17T14:55:34.013Z,157.50
2022-09-17T14:56:34.004Z,213.75
2022-09-17T14:57:34.017Z,388.13
2022-09-17T14:58:34.004Z,343.13
2022-09-17T14:59:34.095Z,73.13
2022-09-17T15:00:33.951Z,241.88
2022-09-17T15:01:34.015Z,298.13
2022-09-17T15:02:33.992Z,315.00
2022-09-17T15:03:33.921Z,320.63
2022-09-17T15:04:33.898Z,298.13
2022-09-17T15:05:33.920Z,309.38
2022-09-17T15:06:33.878Z,258.75
2022-09-17T15:07:33.866Z,292.50
2022-09-17T15:08:33.855Z,270.00
2022-09-17T15:09:33.837Z,253.13
2022-09-17T15:10:33.855Z,258.75
2022-09-17T15:11:33.822Z,258.75
2022-09-17T15:12:33.802Z,247.50
2022-09-17T15:13:33.788Z,202.50
2022-09-17T15:14:33.781Z,180.00
2022-09-17T15:15:33.885Z,196.88
2022-09-17T15:16:33.790Z,196.88
2022-09-17T15:17:33.756Z,168.75
2022-09-17T15:18:33.730Z,163.13
2022-09-17T15:19:33.718Z,151.88
2022-09-17T15:20:33.731Z,129.38
2022-09-17T15:21:33.717Z,135.00
2022-09-17T15:22:33.681Z,146.25
2022-09-17T15:23:33.666Z,185.63
2022-09-17T15:24:33.654Z,168.75
2022-09-17T15:25:33.668Z,140.63
2022-09-17T15:26:33.630Z,140.63
2022-09-17T15:27:33.616Z,146.25
2022-09-17T15:28:33.604Z,135.00
2022-09-17T15:29:33.587Z,157.50
2022-09-17T15:30:33.741Z,90.00
2022-09-17T15:31:33.759Z,135.00
2022-09-17T15:32:33.548Z,157.50
2022-09-17T15:33:33.545Z,163.13
2022-09-17T15:34:33.524Z,196.88
2022-09-17T15:35:33.533Z,225.00
2022-09-17T15:36:33.497Z,56.25
2022-09-17T15:37:33.500Z,28.13
2022-09-17T15:38:33.470Z,22.50
2022-09-17T15:39:33.455Z,22.50
2022-09-17T15:40:33.522Z,22.50
2022-09-17T15:41:33.458Z,22.50
2022-09-17T15:42:33.418Z,16.88
2022-09-17T15:43:33.403Z,16.88
2022-09-17T15:44:33.416Z,22.50
2022-09-17T15:45:33.374Z,11.25
2022-09-17T15:46:33.445Z,11.25
2022-09-17T15:47:33.423Z,28.13
2022-09-17T15:48:33.336Z,61.88
2022-09-17T15:49:33.317Z,33.75
2022-09-17T15:50:33.307Z,45.00
2022-09-17T15:51:33.326Z,50.63
2022-09-17T15:52:33.283Z,45.00
2022-09-17T15:53:33.265Z,45.00
2022-09-17T15:54:33.252Z,45.00
2022-09-17T15:55:33.235Z,45.00
2022-09-17T15:56:33.270Z,45.00
2022-09-17T15:57:33.206Z,45.00
2022-09-17T15:58:33.192Z,45.00
2022-09-17T15:59:33.246Z,50.63
2022-09-17T16:00:33.170Z,39.38
2022-09-17T16:01:33.234Z,22.50
2022-09-17T16:02:33.251Z,16.88
2022-09-17T16:03:33.207Z,16.88
2022-09-17T16:04:33.110Z,11.25
2022-09-17T16:05:33.094Z,11.25
2022-09-17T16:06:33.083Z,5.63
2022-09-17T16:07:33.093Z,5.63
2022-09-17T16:08:33.061Z,0.00
2022-09-17T16:09:33.057Z,0.00
2022-09-17T16:10:33.027Z,0.00
2022-09-17T16:11:33.011Z,0.00
2022-09-17T16:12:33.027Z,0.00
2022-09-17T16:13:33.017Z,0.00
2022-09-17T16:14:32.969Z,0.00
2022-09-17T16:15:32.953Z,0.00
2022-09-17T16:16:32.962Z,0.00
2022-09-17T16:17:33.206Z,0.00
2022-09-17T16:18:32.949Z,5.63
2022-09-17T16:19:32.977Z,5.63
2022-09-17T16:20:32.886Z,5.63
2022-09-17T16:21:32.881Z,11.25
2022-09-17T16:22:32.860Z,22.50
2022-09-17T16:23:32.841Z,28.13
2022-09-17T16:24:32.823Z,28.13
2022-09-17T16:25:32.809Z,22.50
2022-09-17T16:26:32.859Z,28.13
2022-09-17T16:27:32.782Z,28.13
2022-09-17T16:28:32.773Z,22.50
2022-09-17T16:29:32.752Z,28.13
2022-09-17T16:30:32.741Z,22.50
2022-09-17T16:31:32.751Z,22.50
2022-09-17T16:32:32.741Z,22.50
2022-09-17T16:33:32.694Z,22.50
2022-09-17T16:34:32.678Z,22.50
2022-09-17T16:35:32.741Z,16.88